Terminal Aerodrome Forecast
Issued by NWS Charleston, WV

Current Version | Previous Version | Text Only | Print | Product List | Glossary Off
Versions: 1 2 3 4 5 6 7 8 9 10 11 12 13 14 15 16 17 18 19 20 21 22 23 24 25 26 27

474
FTUS41 KRLX 102320
TAFEKN
TAF
KEKN 102320Z 1100/1124 24006KT P6SM BKN100
     FM110300 25008G14KT P6SM BKN050
     FM110900 27008G14KT P6SM BKN030
     FM111300 27007KT P6SM BKN030
     FM111500 24006KT P6SM BKN040
     FM111700 21005KT P6SM SCT150
     FM112000 19003KT P6SM BKN100=

USA.gov is the U.S. government's official web portal to all federal, state and local government web resources and services.